sensor_id;sensor_type;location;lat;lon;timestamp;pressure;altitude;pressure_sealevel;temperature;humidity
32298;BME280;18782;48.984;8.548;2023-07-31T00:01:16;99949.69;;;17.84;75.10
32298;BME280;18782;48.984;8.548;2023-07-31T00:03:45;99949.69;;;17.80;77.51
32298;BME280;18782;48.984;8.548;2023-07-31T00:06:14;99948.00;;;17.74;77.40
32298;BME280;18782;48.984;8.548;2023-07-31T00:08:43;99942.81;;;17.65;77.63
32298;BME280;18782;48.984;8.548;2023-07-31T00:11:10;99936.72;;;17.64;77.26
32298;BME280;18782;48.984;8.548;2023-07-31T00:13:38;99935.91;;;17.59;77.91
32298;BME280;18782;48.984;8.548;2023-07-31T00:16:06;99937.66;;;17.53;77.28
32298;BME280;18782;48.984;8.548;2023-07-31T00:18:33;99939.38;;;17.54;75.82
32298;BME280;18782;48.984;8.548;2023-07-31T00:21:01;99939.38;;;17.57;76.11
32298;BME280;18782;48.984;8.548;2023-07-31T00:23:30;99948.06;;;17.53;78.18
32298;BME280;18782;48.984;8.548;2023-07-31T00:25:58;99930.75;;;17.45;77.29
32298;BME280;18782;48.984;8.548;2023-07-31T00:28:25;99929.88;;;17.42;77.94
32298;BME280;18782;48.984;8.548;2023-07-31T00:30:53;99929.06;;;17.38;78.78
32298;BME280;18782;48.984;8.548;2023-07-31T00:33:25;99923.91;;;17.23;79.24
32298;BME280;18782;48.984;8.548;2023-07-31T00:35:52;99926.50;;;17.17;79.64
32298;BME280;18782;48.984;8.548;2023-07-31T00:42:21;99918.72;;;17.02;81.88
32298;BME280;18782;48.984;8.548;2023-07-31T00:44:49;99922.19;;;17.01;81.73
32298;BME280;18782;48.984;8.548;2023-07-31T00:47:16;99917.03;;;16.91;82.51
32298;BME280;18782;48.984;8.548;2023-07-31T00:49:45;99910.09;;;16.84;82.61
32298;BME280;18782;48.984;8.548;2023-07-31T00:52:13;99925.72;;;16.81;82.29
32298;BME280;18782;48.984;8.548;2023-07-31T00:54:40;99914.44;;;16.82;82.84
32298;BME280;18782;48.984;8.548;2023-07-31T00:57:08;99910.97;;;16.79;83.10
32298;BME280;18782;48.984;8.548;2023-07-31T00:59:37;99908.38;;;16.74;82.43
32298;BME280;18782;48.984;8.548;2023-07-31T01:02:04;99910.09;;;16.69;83.69
32298;BME280;18782;48.984;8.548;2023-07-31T01:04:33;99911.81;;;16.67;82.88
32298;BME280;18782;48.984;8.548;2023-07-31T01:07:04;99901.44;;;16.64;83.36
32298;BME280;18782;48.984;8.548;2023-07-31T01:09:38;99896.22;;;16.58;82.97
32298;BME280;18782;48.984;8.548;2023-07-31T01:12:13;99904.03;;;16.56;84.79
32298;BME280;18782;48.984;8.548;2023-07-31T01:14:52;99900.59;;;16.50;84.86
32298;BME280;18782;48.984;8.548;2023-07-31T01:17:29;99897.13;;;16.46;84.58
32298;BME280;18782;48.984;8.548;2023-07-31T01:19:59;99891.06;;;16.39;84.79
32298;BME280;18782;48.984;8.548;2023-07-31T01:22:45;99894.50;;;16.32;85.82
32298;BME280;18782;48.984;8.548;2023-07-31T01:25:25;99894.53;;;16.29;86.01
32298;BME280;18782;48.984;8.548;2023-07-31T01:28:03;99898.84;;;16.27;86.08
32298;BME280;18782;48.984;8.548;2023-07-31T01:30:33;99900.56;;;16.22;86.79
32298;BME280;18782;48.984;8.548;2023-07-31T01:33:04;99898.84;;;16.21;86.46
32298;BME280;18782;48.984;8.548;2023-07-31T01:35:34;99891.03;;;16.15;86.46
32298;BME280;18782;48.984;8.548;2023-07-31T01:38:02;99891.91;;;16.11;86.53
32298;BME280;18782;48.984;8.548;2023-07-31T01:40:30;99887.56;;;16.10;86.57
32298;BME280;18782;48.984;8.548;2023-07-31T01:42:59;99885.84;;;16.03;86.81
32298;BME280;18782;48.984;8.548;2023-07-31T01:45:28;99882.38;;;15.98;87.74
32298;BME280;18782;48.984;8.548;2023-07-31T01:47:55;99882.34;;;15.95;88.02
32298;BME280;18782;48.984;8.548;2023-07-31T01:50:23;99878.00;;;15.92;88.50
32298;BME280;18782;48.984;8.548;2023-07-31T01:52:51;99882.34;;;15.88;89.34
32298;BME280;18782;48.984;8.548;2023-07-31T01:55:18;99878.88;;;15.83;89.75
32298;BME280;18782;48.984;8.548;2023-07-31T01:57:46;99875.41;;;15.81;88.84
32298;BME280;18782;48.984;8.548;2023-07-31T02:00:16;99866.75;;;15.81;88.10
32298;BME280;18782;48.984;8.548;2023-07-31T02:02:44;99863.31;;;15.83;87.44
32298;BME280;18782;48.984;8.548;2023-07-31T02:05:12;99862.44;;;15.92;87.41
32298;BME280;18782;48.984;8.548;2023-07-31T02:07:40;99863.34;;;15.93;86.02
32298;BME280;18782;48.984;8.548;2023-07-31T02:10:08;99856.41;;;15.95;84.79
32298;BME280;18782;48.984;8.548;2023-07-31T02:12:36;99856.41;;;15.98;84.82
32298;BME280;18782;48.984;8.548;2023-07-31T02:15:05;99846.88;;;16.01;83.93
32298;BME280;18782;48.984;8.548;2023-07-31T02:17:34;99848.59;;;16.02;84.03
32298;BME280;18782;48.984;8.548;2023-07-31T02:20:02;99852.09;;;16.04;84.24
32298;BME280;18782;48.984;8.548;2023-07-31T02:22:30;99844.28;;;16.06;84.24
32298;BME280;18782;48.984;8.548;2023-07-31T02:24:58;99839.94;;;16.02;84.29
32298;BME280;18782;48.984;8.548;2023-07-31T02:27:25;99838.22;;;16.02;85.34
32298;BME280;18782;48.984;8.548;2023-07-31T02:29:54;99834.78;;;16.05;84.82
32298;BME280;18782;48.984;8.548;2023-07-31T02:36:29;99830.44;;;15.95;86.42
32298;BME280;18782;48.984;8.548;2023-07-31T02:38:57;99828.72;;;15.94;86.17
32298;BME280;18782;48.984;8.548;2023-07-31T02:41:25;99830.44;;;15.91;86.09
32298;BME280;18782;48.984;8.548;2023-07-31T02:43:53;99826.97;;;15.86;86.40
32298;BME280;18782;48.984;8.548;2023-07-31T02:46:21;99823.50;;;15.84;86.54
32298;BME280;18782;48.984;8.548;2023-07-31T02:48:51;99835.63;;;15.82;86.37
32298;BME280;18782;48.984;8.548;2023-07-31T02:51:19;99836.47;;;15.84;85.97
32298;BME280;18782;48.984;8.548;2023-07-31T02:53:49;99832.16;;;15.86;86.65
32298;BME280;18782;48.984;8.548;2023-07-31T02:56:17;99839.06;;;15.84;86.52
32298;BME280;18782;48.984;8.548;2023-07-31T02:58:45;99832.16;;;15.86;85.58
32298;BME280;18782;48.984;8.548;2023-07-31T03:01:13;99833.88;;;15.90;83.61
32298;BME280;18782;48.984;8.548;2023-07-31T03:03:41;99826.97;;;15.96;83.47
32298;BME280;18782;48.984;8.548;2023-07-31T03:06:11;99832.19;;;16.05;82.43
32298;BME280;18782;48.984;8.548;2023-07-31T03:08:38;99839.13;;;16.09;82.48
32298;BME280;18782;48.984;8.548;2023-07-31T03:11:07;99829.59;;;16.14;81.92
32298;BME280;18782;48.984;8.548;2023-07-31T03:13:35;99835.63;;;16.16;82.78
32298;BME280;18782;48.984;8.548;2023-07-31T03:16:03;99844.31;;;16.24;81.92
32298;BME280;18782;48.984;8.548;2023-07-31T03:18:31;99835.66;;;16.25;80.53
32298;BME280;18782;48.984;8.548;2023-07-31T03:20:59;99839.09;;;16.30;82.12
32298;BME280;18782;48.984;8.548;2023-07-31T03:23:27;99841.69;;;16.33;81.56
32298;BME280;18782;48.984;8.548;2023-07-31T03:25:58;99839.09;;;16.33;81.81
32298;BME280;18782;48.984;8.548;2023-07-31T03:28:30;99838.22;;;16.37;81.66
32298;BME280;18782;48.984;8.548;2023-07-31T03:30:57;99830.44;;;16.37;82.06
32298;BME280;18782;48.984;8.548;2023-07-31T03:33:26;99826.09;;;16.36;81.99
32298;BME280;18782;48.984;8.548;2023-07-31T03:35:53;99823.50;;;16.42;79.74
32298;BME280;18782;48.984;8.548;2023-07-31T03:38:21;99824.38;;;16.44;81.94
32298;BME280;18782;48.984;8.548;2023-07-31T03:40:49;99830.44;;;16.47;79.65
32298;BME280;18782;48.984;8.548;2023-07-31T03:43:18;99835.63;;;16.47;80.76
32298;BME280;18782;48.984;8.548;2023-07-31T03:45:47;99830.41;;;16.43;81.71
32298;BME280;18782;48.984;8.548;2023-07-31T03:48:15;99830.44;;;16.37;82.79
32298;BME280;18782;48.984;8.548;2023-07-31T03:50:43;99835.66;;;16.34;83.18
32298;BME280;18782;48.984;8.548;2023-07-31T03:53:10;99826.97;;;16.37;82.80
32298;BME280;18782;48.984;8.548;2023-07-31T03:55:38;99824.34;;;16.38;82.33
32298;BME280;18782;48.984;8.548;2023-07-31T03:58:06;99826.97;;;16.35;82.88
32298;BME280;18782;48.984;8.548;2023-07-31T04:00:33;99834.78;;;16.35;83.24
32298;BME280;18782;48.984;8.548;2023-07-31T04:03:03;99826.09;;;16.38;81.49
32298;BME280;18782;48.984;8.548;2023-07-31T04:05:32;99828.72;;;16.39;83.63
32298;BME280;18782;48.984;8.548;2023-07-31T04:08:00;99825.22;;;16.37;83.83
32298;BME280;18782;48.984;8.548;2023-07-31T04:10:27;99828.72;;;16.36;83.76
32298;BME280;18782;48.984;8.548;2023-07-31T04:12:56;99827.84;;;16.37;81.82
32298;BME280;18782;48.984;8.548;2023-07-31T04:15:24;99831.28;;;16.42;81.68
32298;BME280;18782;48.984;8.548;2023-07-31T04:17:52;99824.34;;;16.48;80.24
32298;BME280;18782;48.984;8.548;2023-07-31T04:20:21;99826.94;;;16.57;80.51
32298;BME280;18782;48.984;8.548;2023-07-31T04:22:48;99833.03;;;16.56;80.60
32298;BME280;18782;48.984;8.548;2023-07-31T04:25:16;99829.53;;;16.57;81.14
32298;BME280;18782;48.984;8.548;2023-07-31T04:27:44;99827.81;;;16.57;81.33
32298;BME280;18782;48.984;8.548;2023-07-31T04:30:12;99826.94;;;16.60;82.61
32298;BME280;18782;48.984;8.548;2023-07-31T04:32:39;99826.94;;;16.60;82.03
32298;BME280;18782;48.984;8.548;2023-07-31T04:35:07;99818.28;;;16.55;82.07
32298;BME280;18782;48.984;8.548;2023-07-31T04:37:36;99822.63;;;16.57;83.24
32298;BME280;18782;48.984;8.548;2023-07-31T04:40:06;99821.75;;;16.57;82.43
32298;BME280;18782;48.984;8.548;2023-07-31T04:42:34;99816.56;;;16.57;81.05
32298;BME280;18782;48.984;8.548;2023-07-31T04:45:02;99811.34;;;16.63;82.40
32298;BME280;18782;48.984;8.548;2023-07-31T04:47:30;99813.06;;;16.67;82.44
32298;BME280;18782;48.984;8.548;2023-07-31T04:49:58;99816.53;;;16.67;80.82
32298;BME280;18782;48.984;8.548;2023-07-31T04:52:26;99811.31;;;16.69;79.81
32298;BME280;18782;48.984;8.548;2023-07-31T04:54:55;99816.56;;;16.72;81.23
32298;BME280;18782;48.984;8.548;2023-07-31T04:57:23;99813.09;;;16.76;80.62
32298;BME280;18782;48.984;8.548;2023-07-31T04:59:50;99812.19;;;16.83;78.20
32298;BME280;18782;48.984;8.548;2023-07-31T05:02:18;99811.31;;;16.84;79.94
32298;BME280;18782;48.984;8.548;2023-07-31T05:04:46;99810.44;;;16.87;80.47
32298;BME280;18782;48.984;8.548;2023-07-31T05:07:13;99811.31;;;16.84;80.33
32298;BME280;18782;48.984;8.548;2023-07-31T05:09:41;99813.91;;;16.86;81.65
32298;BME280;18782;48.984;8.548;2023-07-31T05:12:10;99823.44;;;16.87;82.03
32298;BME280;18782;48.984;8.548;2023-07-31T05:14:38;99825.16;;;16.85;82.23
32298;BME280;18782;48.984;8.548;2023-07-31T05:17:06;99809.56;;;16.89;81.95
32298;BME280;18782;48.984;8.548;2023-07-31T05:19:33;99803.50;;;16.92;81.36
32298;BME280;18782;48.984;8.548;2023-07-31T05:22:01;99806.09;;;16.97;80.70
32298;BME280;18782;48.984;8.548;2023-07-31T05:24:29;99809.50;;;17.02;81.31
32298;BME280;18782;48.984;8.548;2023-07-31T05:26:57;99812.09;;;17.09;80.46
32298;BME280;18782;48.984;8.548;2023-07-31T05:29:26;99814.66;;;17.17;79.85
32298;BME280;18782;48.984;8.548;2023-07-31T05:31:54;99819.81;;;17.26;79.51
32298;BME280;18782;48.984;8.548;2023-07-31T05:34:22;99819.75;;;17.41;78.00
32298;BME280;18782;48.984;8.548;2023-07-31T05:36:49;99808.38;;;17.56;79.89
32298;BME280;18782;48.984;8.548;2023-07-31T05:39:17;99813.50;;;17.67;79.46
32298;BME280;18782;48.984;8.548;2023-07-31T05:41:46;99821.31;;;17.76;75.30
32298;BME280;18782;48.984;8.548;2023-07-31T05:44:13;99816.00;;;17.91;76.02
32298;BME280;18782;48.984;8.548;2023-07-31T05:46:42;99812.34;;;18.11;76.26
32298;BME280;18782;48.984;8.548;2023-07-31T05:49:10;99817.41;;;18.29;75.11
32298;BME280;18782;48.984;8.548;2023-07-31T05:51:38;99813.75;;;18.48;74.91
32298;BME280;18782;48.984;8.548;2023-07-31T05:54:05;99799.66;;;18.66;73.94
32298;BME280;18782;48.984;8.548;2023-07-31T05:56:33;99804.72;;;18.83;71.91
32298;BME280;18782;48.984;8.548;2023-07-31T05:59:01;99807.19;;;18.95;66.96
32298;BME280;18782;48.984;8.548;2023-07-31T06:01:29;99806.16;;;19.09;68.76
32298;BME280;18782;48.984;8.548;2023-07-31T06:03:58;99808.66;;;19.18;65.90
32298;BME280;18782;48.984;8.548;2023-07-31T06:06:26;99813.66;;;19.33;64.73
32298;BME280;18782;48.984;8.548;2023-07-31T06:08:53;99817.91;;;19.40;64.63
32298;BME280;18782;48.984;8.548;2023-07-31T06:11:22;99810.03;;;19.45;64.45
32298;BME280;18782;48.984;8.548;2023-07-31T06:13:51;99800.28;;;19.58;63.75
32298;BME280;18782;48.984;8.548;2023-07-31T06:16:19;99805.28;;;19.73;63.46
32298;BME280;18782;48.984;8.548;2023-07-31T06:18:48;99795.59;;;19.81;64.13
32298;BME280;18782;48.984;8.548;2023-07-31T06:21:17;99797.16;;;19.93;65.06
32298;BME280;18782;48.984;8.548;2023-07-31T06:23:44;99797.03;;;19.99;65.68
32298;BME280;18782;48.984;8.548;2023-07-31T06:26:12;99795.16;;;20.08;65.87
32298;BME280;18782;48.984;8.548;2023-07-31T06:28:40;99796.75;;;20.17;65.62
32298;BME280;18782;48.984;8.548;2023-07-31T06:31:07;99798.34;;;20.26;65.72
32298;BME280;18782;48.984;8.548;2023-07-31T06:33:35;99801.66;;;20.36;65.12
32298;BME280;18782;48.984;8.548;2023-07-31T06:36:03;99803.16;;;20.50;65.70
32298;BME280;18782;48.984;8.548;2023-07-31T06:38:32;99808.97;;;20.68;64.02
32298;BME280;18782;48.984;8.548;2023-07-31T06:41:03;99808.75;;;20.77;61.97
32298;BME280;18782;48.984;8.548;2023-07-31T06:43:31;99805.97;;;20.86;61.14
32298;BME280;18782;48.984;8.548;2023-07-31T06:46:00;99806.91;;;20.82;60.13
32298;BME280;18782;48.984;8.548;2023-07-31T06:48:31;99804.84;;;20.99;60.96
32298;BME280;18782;48.984;8.548;2023-07-31T06:51:00;99793.97;;;21.18;61.75
32298;BME280;18782;48.984;8.548;2023-07-31T06:53:28;99791.41;;;21.16;58.71
32298;BME280;18782;48.984;8.548;2023-07-31T06:55:57;99791.28;;;20.79;58.48
32298;BME280;18782;48.984;8.548;2023-07-31T06:58:25;99794.56;;;20.90;59.32
32298;BME280;18782;48.984;8.548;2023-07-31T07:00:52;99799.53;;;21.02;59.15
32298;BME280;18782;48.984;8.548;2023-07-31T07:03:20;99798.53;;;21.08;59.02
32298;BME280;18782;48.984;8.548;2023-07-31T07:05:48;99788.94;;;21.08;58.80
32298;BME280;18782;48.984;8.548;2023-07-31T07:08:15;99783.69;;;21.08;58.92
32298;BME280;18782;48.984;8.548;2023-07-31T07:10:44;99788.06;;;21.08;59.62
32298;BME280;18782;48.984;8.548;2023-07-31T07:13:13;99791.00;;;20.94;58.67
32298;BME280;18782;48.984;8.548;2023-07-31T07:15:41;99792.38;;;20.69;57.72
32298;BME280;18782;48.984;8.548;2023-07-31T07:18:08;99779.50;;;20.58;58.81
32298;BME280;18782;48.984;8.548;2023-07-31T07:20:37;99777.53;;;20.69;58.60
32298;BME280;18782;48.984;8.548;2023-07-31T07:23:04;99781.19;;;20.61;58.32
32298;BME280;18782;48.984;8.548;2023-07-31T07:25:32;99776.09;;;20.53;58.79
32298;BME280;18782;48.984;8.548;2023-07-31T07:28:00;99774.97;;;20.68;58.50
32298;BME280;18782;48.984;8.548;2023-07-31T07:30:29;99786.13;;;20.76;58.86
32298;BME280;18782;48.984;8.548;2023-07-31T07:32:57;99783.16;;;20.93;58.69
32298;BME280;18782;48.984;8.548;2023-07-31T07:35:24;99783.78;;;21.05;58.83
32298;BME280;18782;48.984;8.548;2023-07-31T07:37:52;99785.00;;;21.29;58.09
32298;BME280;18782;48.984;8.548;2023-07-31T07:40:20;99779.44;;;21.46;56.96
32298;BME280;18782;48.984;8.548;2023-07-31T07:42:49;99773.59;;;21.71;57.74
32298;BME280;18782;48.984;8.548;2023-07-31T07:45:17;99774.69;;;21.62;55.15
32298;BME280;18782;48.984;8.548;2023-07-31T07:47:46;99773.75;;;21.65;55.89
32298;BME280;18782;48.984;8.548;2023-07-31T07:50:14;99774.75;;;21.59;54.94
32298;BME280;18782;48.984;8.548;2023-07-31T07:52:41;99775.91;;;21.47;55.33
32298;BME280;18782;48.984;8.548;2023-07-31T07:55:09;99772.25;;;21.54;55.85
32298;BME280;18782;48.984;8.548;2023-07-31T07:57:37;99769.00;;;21.43;55.55
32298;BME280;18782;48.984;8.548;2023-07-31T08:00:06;99770.16;;;21.69;57.82
32298;BME280;18782;48.984;8.548;2023-07-31T08:02:39;99763.78;;;21.80;55.03
32298;BME280;18782;48.984;8.548;2023-07-31T08:05:09;99771.31;;;21.94;54.35
32298;BME280;18782;48.984;8.548;2023-07-31T08:07:37;99785.44;;;21.87;53.61
32298;BME280;18782;48.984;8.548;2023-07-31T08:10:07;99774.97;;;21.50;53.96
32298;BME280;18782;48.984;8.548;2023-07-31T08:12:35;99778.44;;;21.52;53.16
32298;BME280;18782;48.984;8.548;2023-07-31T08:15:04;99774.19;;;21.46;54.53
32298;BME280;18782;48.984;8.548;2023-07-31T08:17:31;99765.28;;;21.53;55.26
32298;BME280;18782;48.984;8.548;2023-07-31T08:19:59;99773.81;;;21.63;55.19
32298;BME280;18782;48.984;8.548;2023-07-31T08:22:28;99778.06;;;21.67;54.92
32298;BME280;18782;48.984;8.548;2023-07-31T08:24:56;99769.56;;;21.57;54.24
32298;BME280;18782;48.984;8.548;2023-07-31T08:27:23;99767.63;;;21.66;53.90
32298;BME280;18782;48.984;8.548;2023-07-31T08:29:51;99756.81;;;21.42;54.62
32298;BME280;18782;48.984;8.548;2023-07-31T08:32:19;99767.59;;;21.27;54.43
32298;BME280;18782;48.984;8.548;2023-07-31T08:34:47;99758.81;;;21.29;54.88
32298;BME280;18782;48.984;8.548;2023-07-31T08:37:15;99759.31;;;21.48;55.13
32298;BME280;18782;48.984;8.548;2023-07-31T08:39:44;99767.44;;;21.73;54.92
32298;BME280;18782;48.984;8.548;2023-07-31T08:42:12;99758.53;;;21.80;55.85
32298;BME280;18782;48.984;8.548;2023-07-31T08:44:41;99755.38;;;21.66;53.60
32298;BME280;18782;48.984;8.548;2023-07-31T08:47:09;99743.03;;;21.71;54.39
32298;BME280;18782;48.984;8.548;2023-07-31T08:49:38;99744.16;;;21.97;54.82
32298;BME280;18782;48.984;8.548;2023-07-31T08:52:07;99749.53;;;21.91;53.77
32298;BME280;18782;48.984;8.548;2023-07-31T08:54:34;99735.91;;;22.13;53.86
32298;BME280;18782;48.984;8.548;2023-07-31T08:57:05;99743.28;;;21.96;53.18
32298;BME280;18782;48.984;8.548;2023-07-31T08:59:34;99744.66;;;22.12;53.41
32298;BME280;18782;48.984;8.548;2023-07-31T09:02:05;99735.53;;;21.92;53.20
32298;BME280;18782;48.984;8.548;2023-07-31T09:04:33;99730.56;;;21.82;52.64
32298;BME280;18782;48.984;8.548;2023-07-31T09:07:02;99740.09;;;21.85;52.84
32298;BME280;18782;48.984;8.548;2023-07-31T09:09:31;99746.28;;;21.81;53.30
32298;BME280;18782;48.984;8.548;2023-07-31T09:11:59;99739.41;;;21.77;53.77
32298;BME280;18782;48.984;8.548;2023-07-31T09:14:28;99731.91;;;21.97;53.94
32298;BME280;18782;48.984;8.548;2023-07-31T09:16:57;99724.13;;;21.94;53.04
32298;BME280;18782;48.984;8.548;2023-07-31T09:19:28;99718.56;;;22.06;53.61
32298;BME280;18782;48.984;8.548;2023-07-31T09:21:56;99725.16;;;21.88;53.53
32298;BME280;18782;48.984;8.548;2023-07-31T09:24:28;99715.81;;;22.12;53.56
32298;BME280;18782;48.984;8.548;2023-07-31T09:26:57;99708.06;;;22.06;51.59
32298;BME280;18782;48.984;8.548;2023-07-31T09:29:27;99699.66;;;22.28;52.40
32298;BME280;18782;48.984;8.548;2023-07-31T09:31:56;99695.25;;;22.30;51.99
32298;BME280;18782;48.984;8.548;2023-07-31T09:34:29;99684.50;;;22.39;52.49
32298;BME280;18782;48.984;8.548;2023-07-31T09:36:58;99677.88;;;22.57;52.38
32298;BME280;18782;48.984;8.548;2023-07-31T09:39:29;99678.28;;;22.73;51.35
32298;BME280;18782;48.984;8.548;2023-07-31T09:41:57;99693.03;;;23.06;52.34
32298;BME280;18782;48.984;8.548;2023-07-31T09:44:38;99692.84;;;23.12;51.96
32298;BME280;18782;48.984;8.548;2023-07-31T09:47:21;99683.78;;;22.95;51.24
32298;BME280;18782;48.984;8.548;2023-07-31T09:49:51;99700.78;;;23.11;51.15
32298;BME280;18782;48.984;8.548;2023-07-31T09:52:18;99703.13;;;22.92;51.01
32298;BME280;18782;48.984;8.548;2023-07-31T09:54:46;99696.25;;;22.88;50.81
32298;BME280;18782;48.984;8.548;2023-07-31T09:57:14;99696.97;;;22.62;51.40
32298;BME280;18782;48.984;8.548;2023-07-31T09:59:47;99692.41;;;22.69;51.17
32298;BME280;18782;48.984;8.548;2023-07-31T10:02:21;99676.03;;;22.60;51.52
32298;BME280;18782;48.984;8.548;2023-07-31T10:04:50;99667.53;;;22.82;51.35
32298;BME280;18782;48.984;8.548;2023-07-31T10:07:18;99662.19;;;22.85;51.24
32298;BME280;18782;48.984;8.548;2023-07-31T10:09:48;99656.13;;;22.83;50.61
32298;BME280;18782;48.984;8.548;2023-07-31T10:12:19;99654.59;;;23.05;51.85
32298;BME280;18782;48.984;8.548;2023-07-31T10:14:49;99669.19;;;23.14;51.34
32298;BME280;18782;48.984;8.548;2023-07-31T10:17:18;99652.59;;;23.13;51.46
32298;BME280;18782;48.984;8.548;2023-07-31T10:19:47;99646.28;;;23.19;52.05
32298;BME280;18782;48.984;8.548;2023-07-31T10:22:16;99647.13;;;23.20;50.76
32298;BME280;18782;48.984;8.548;2023-07-31T10:24:45;99659.47;;;23.44;50.08
32298;BME280;18782;48.984;8.548;2023-07-31T10:27:13;99667.97;;;23.52;50.83
32298;BME280;18782;48.984;8.548;2023-07-31T10:29:43;99672.06;;;23.61;50.69
32298;BME280;18782;48.984;8.548;2023-07-31T10:32:12;99672.78;;;23.38;49.20
32298;BME280;18782;48.984;8.548;2023-07-31T10:34:41;99675.78;;;22.99;49.96
32298;BME280;18782;48.984;8.548;2023-07-31T10:37:25;99673.53;;;22.85;50.89
32298;BME280;18782;48.984;8.548;2023-07-31T10:39:58;99686.03;;;22.77;51.47
32298;BME280;18782;48.984;8.548;2023-07-31T10:42:30;99664.31;;;23.02;51.41
32298;BME280;18782;48.984;8.548;2023-07-31T10:44:59;99662.91;;;23.20;50.39
32298;BME280;18782;48.984;8.548;2023-07-31T10:47:29;99667.53;;;23.38;51.02
32298;BME280;18782;48.984;8.548;2023-07-31T10:50:13;99672.47;;;23.21;50.53
32298;BME280;18782;48.984;8.548;2023-07-31T10:52:44;99670.28;;;23.61;50.74
32298;BME280;18782;48.984;8.548;2023-07-31T10:55:16;99666.63;;;23.67;49.37
32298;BME280;18782;48.984;8.548;2023-07-31T10:57:50;99657.88;;;23.66;49.69
32298;BME280;18782;48.984;8.548;2023-07-31T11:00:21;99651.91;;;23.61;49.79
32298;BME280;18782;48.984;8.548;2023-07-31T11:03:01;99659.16;;;23.53;50.14
32298;BME280;18782;48.984;8.548;2023-07-31T11:05:48;99646.84;;;23.29;51.45
32298;BME280;18782;48.984;8.548;2023-07-31T11:08:17;99649.34;;;23.58;51.58
32298;BME280;18782;48.984;8.548;2023-07-31T11:10:48;99638.97;;;23.55;50.65
32298;BME280;18782;48.984;8.548;2023-07-31T11:13:16;99637.19;;;23.56;50.84
32298;BME280;18782;48.984;8.548;2023-07-31T11:15:44;99631.72;;;23.62;51.03
32298;BME280;18782;48.984;8.548;2023-07-31T11:20:41;99635.19;;;23.89;50.19
32298;BME280;18782;48.984;8.548;2023-07-31T11:23:10;99632.69;;;23.86;49.25
32298;BME280;18782;48.984;8.548;2023-07-31T11:25:39;99635.56;;;23.78;49.24
32298;BME280;18782;48.984;8.548;2023-07-31T11:28:09;99627.44;;;23.33;50.09
32298;BME280;18782;48.984;8.548;2023-07-31T11:30:38;99621.66;;;23.23;50.73
32298;BME280;18782;48.984;8.548;2023-07-31T11:33:08;99630.47;;;23.47;50.13
32298;BME280;18782;48.984;8.548;2023-07-31T11:35:44;99625.72;;;23.32;50.04
32298;BME280;18782;48.984;8.548;2023-07-31T11:38:12;99619.25;;;23.68;49.70
32298;BME280;18782;48.984;8.548;2023-07-31T11:40:48;99613.38;;;23.87;49.72
32298;BME280;18782;48.984;8.548;2023-07-31T11:43:16;99621.81;;;24.45;49.86
32298;BME280;18782;48.984;8.548;2023-07-31T11:45:47;99620.50;;;24.32;48.39
32298;BME280;18782;48.984;8.548;2023-07-31T11:48:19;99620.72;;;24.51;48.28
32298;BME280;18782;48.984;8.548;2023-07-31T11:50:50;99603.28;;;23.75;48.58
32298;BME280;18782;48.984;8.548;2023-07-31T11:53:21;99607.22;;;23.88;48.97
32298;BME280;18782;48.984;8.548;2023-07-31T11:55:51;99598.84;;;23.77;49.26
32298;BME280;18782;48.984;8.548;2023-07-31T11:58:19;99604.19;;;23.74;49.45
32298;BME280;18782;48.984;8.548;2023-07-31T12:00:48;99595.31;;;24.01;49.51
32298;BME280;18782;48.984;8.548;2023-07-31T12:03:16;99591.16;;;23.95;48.92
32298;BME280;18782;48.984;8.548;2023-07-31T12:05:48;99583.22;;;23.97;49.76
32298;BME280;18782;48.984;8.548;2023-07-31T12:08:16;99587.50;;;23.75;50.09
32298;BME280;18782;48.984;8.548;2023-07-31T12:10:43;99592.66;;;24.03;49.50
32298;BME280;18782;48.984;8.548;2023-07-31T12:13:20;99573.59;;;23.73;50.19
32298;BME280;18782;48.984;8.548;2023-07-31T12:15:49;99569.81;;;23.80;51.34
32298;BME280;18782;48.984;8.548;2023-07-31T12:18:20;99571.78;;;24.21;50.11
32298;BME280;18782;48.984;8.548;2023-07-31T12:20:55;99576.25;;;24.88;48.25
32298;BME280;18782;48.984;8.548;2023-07-31T12:23:26;99563.28;;;24.84;48.18
32298;BME280;18782;48.984;8.548;2023-07-31T12:26:01;99559.72;;;25.90;45.35
32298;BME280;18782;48.984;8.548;2023-07-31T12:28:30;99543.50;;;26.18;45.27
32298;BME280;18782;48.984;8.548;2023-07-31T12:30:59;99547.59;;;26.44;44.70
32298;BME280;18782;48.984;8.548;2023-07-31T12:33:31;99548.78;;;26.37;43.17
32298;BME280;18782;48.984;8.548;2023-07-31T12:36:03;99562.75;;;26.01;44.70
32298;BME280;18782;48.984;8.548;2023-07-31T12:38:31;99547.19;;;26.14;44.87
32298;BME280;18782;48.984;8.548;2023-07-31T12:40:58;99563.34;;;26.64;44.03
32298;BME280;18782;48.984;8.548;2023-07-31T12:43:26;99542.50;;;26.39;44.05
32298;BME280;18782;48.984;8.548;2023-07-31T12:45:54;99548.78;;;26.37;44.16
32298;BME280;18782;48.984;8.548;2023-07-31T12:48:22;99553.13;;;26.00;45.04
32298;BME280;18782;48.984;8.548;2023-07-31T12:50:50;99549.28;;;26.26;44.15
32298;BME280;18782;48.984;8.548;2023-07-31T12:53:19;99538.75;;;25.87;45.46
32298;BME280;18782;48.984;8.548;2023-07-31T12:55:47;99529.38;;;26.00;45.37
32298;BME280;18782;48.984;8.548;2023-07-31T12:58:15;99515.84;;;25.48;46.01
32298;BME280;18782;48.984;8.548;2023-07-31T13:00:42;99523.50;;;25.74;46.48
32298;BME280;18782;48.984;8.548;2023-07-31T13:03:10;99524.81;;;25.44;46.84
32298;BME280;18782;48.984;8.548;2023-07-31T13:05:38;99516.06;;;25.01;46.42
32298;BME280;18782;48.984;8.548;2023-07-31T13:08:06;99506.66;;;25.57;46.75
32298;BME280;18782;48.984;8.548;2023-07-31T13:10:35;99512.13;;;25.72;46.01
32298;BME280;18782;48.984;8.548;2023-07-31T13:13:03;99511.47;;;26.25;45.08
32298;BME280;18782;48.984;8.548;2023-07-31T13:15:30;99513.31;;;25.65;45.34
32298;BME280;18782;48.984;8.548;2023-07-31T13:17:58;99501.03;;;25.45;45.62
32298;BME280;18782;48.984;8.548;2023-07-31T13:20:26;99493.94;;;25.66;45.87